Time;durP1;ratioP1;P1;durP2;ratioP2;P2;SDS_P1;SDS_P2;PMS_P1;PMS_P2;Temp;Humidity;BMP_temperature;BMP_pressure;BME280_temperature;BME280_humidity;BME280_pressure;Samples;Min_cycle;Max_cycle;Signal;HPM_P1;HPM_P2
2021/12/08 00:00:12;;;;;;;;;;;24.00;48.10;;;;;;1542442;77;1925;-71
2021/12/08 00:02:15;;;;;;;;;;;24.00;48.10;;;;;;1536919;77;1057;-70
2021/12/08 00:04:17;;;;;;;;;;;24.00;48.10;;;;;;1539148;77;1476;-68
2021/12/08 00:06:19;;;;;;;;;;;24.00;48.20;;;;;;1542509;77;707;-68
2021/12/08 00:08:21;;;;;;;;;;;24.00;48.20;;;;;;1542457;77;781;-68
2021/12/08 00:14:56;;;;;;;;;;;24.00;48.40;;;;;;1542538;77;724;-70
2021/12/08 00:16:58;;;;;;;;;;;24.00;48.50;;;;;;1542580;77;743;-70
2021/12/08 00:19:00;;;;;;;;;;;24.00;48.60;;;;;;1542614;77;721;-69
2021/12/08 00:21:03;;;;;;;;;;;24.00;48.60;;;;;;1542558;76;1940;-69
2021/12/08 00:23:05;;;;;;;;;;;24.00;48.50;;;;;;1542261;77;1206;-69
2021/12/08 00:25:07;;;;;;;;;;;24.00;48.60;;;;;;1542409;77;748;-69
2021/12/08 00:27:09;;;;;;;;;;;24.00;48.60;;;;;;1542614;77;702;-70
2021/12/08 00:29:11;;;;;;;;;;;24.10;48.70;;;;;;1542524;77;706;-70
2021/12/08 00:31:13;;;;;;;;;;;24.00;48.60;;;;;;1542696;77;825;-70
2021/12/08 00:33:15;;;;;;;;;;;24.00;48.60;;;;;;1542579;76;1137;-71
2021/12/08 00:35:17;;;;;;;;;;;24.00;48.50;;;;;;1542245;77;769;-68
2021/12/08 00:37:19;;;;;;;;;;;24.00;48.50;;;;;;1542638;76;703;-69
2021/12/08 00:39:20;;;;;;;;;;;24.00;48.50;;;;;;1542536;77;783;-69
2021/12/08 00:41:22;;;;;;;;;;;24.10;48.70;;;;;;1542654;77;1935;-69
2021/12/08 00:43:24;;;;;;;;;;;24.10;48.60;;;;;;1542550;77;1136;-69
2021/12/08 00:45:26;;;;;;;;;;;24.00;48.50;;;;;;1542398;77;686;-69
2021/12/08 00:47:28;;;;;;;;;;;24.10;48.60;;;;;;1542665;76;809;-69
2021/12/08 00:49:30;;;;;;;;;;;24.00;48.50;;;;;;1542485;77;861;-69
2021/12/08 00:51:32;;;;;;;;;;;24.00;48.60;;;;;;1541970;76;707;-69
2021/12/08 00:53:34;;;;;;;;;;;24.00;48.60;;;;;;1542294;77;1119;-68
2021/12/08 00:55:36;;;;;;;;;;;24.00;48.60;;;;;;1542390;76;721;-68
2021/12/08 00:57:37;;;;;;;;;;;24.10;48.60;;;;;;1542647;76;721;-68
2021/12/08 00:59:39;;;;;;;;;;;24.00;48.50;;;;;;1542597;77;727;-69
2021/12/08 01:01:41;;;;;;;;;;;24.10;48.60;;;;;;1542485;77;1955;-67
2021/12/08 01:03:45;;;;;;;;;;;24.00;48.50;;;;;;1542691;77;1132;-69
2021/12/08 01:05:48;;;;;;;;;;;24.10;48.60;;;;;;1542322;76;696;-69
2021/12/08 01:07:50;;;;;;;;;;;24.00;48.50;;;;;;1542633;77;709;-69
2021/12/08 01:09:52;;;;;;;;;;;24.10;48.60;;;;;;1542490;76;718;-69
2021/12/08 01:11:56;;;;;;;;;;;24.00;48.40;;;;;;1542519;76;702;-69
2021/12/08 01:13:57;;;;;;;;;;;24.00;48.40;;;;;;1542194;77;1209;-69
2021/12/08 01:15:59;;;;;;;;;;;24.00;48.40;;;;;;1542487;77;813;-69
2021/12/08 01:18:01;;;;;;;;;;;24.00;48.40;;;;;;1542589;76;732;-70
2021/12/08 01:20:03;;;;;;;;;;;24.10;48.50;;;;;;1542458;76;1919;-69
2021/12/08 01:22:05;;;;;;;;;;;24.10;48.50;;;;;;1542249;76;814;-69
2021/12/08 01:24:07;;;;;;;;;;;24.10;48.40;;;;;;1542142;77;1177;-69
2021/12/08 01:26:09;;;;;;;;;;;24.10;48.40;;;;;;1542407;77;629;-69
2021/12/08 01:28:11;;;;;;;;;;;24.10;48.40;;;;;;1542590;77;589;-68
2021/12/08 01:30:13;;;;;;;;;;;24.10;48.30;;;;;;1542657;76;833;-69
2021/12/08 01:32:15;;;;;;;;;;;24.10;48.30;;;;;;1542576;77;828;-68
2021/12/08 01:34:17;;;;;;;;;;;24.10;48.30;;;;;;1542442;77;1166;-69
2021/12/08 01:36:19;;;;;;;;;;;24.10;48.30;;;;;;1534610;76;972;-67
2021/12/08 01:38:21;;;;;;;;;;;24.10;48.30;;;;;;1532453;76;708;-69
2021/12/08 01:40:22;;;;;;;;;;;24.10;48.40;;;;;;1536966;77;1941;-69
2021/12/08 01:42:35;;;;;;;;;;;24.10;48.40;;;;;;1542259;77;752;-69
2021/12/08 01:46:52;;;;;;;;;;;24.00;48.40;;;;;;1542663;76;1650;-70
2021/12/08 01:48:54;;;;;;;;;;;24.00;48.40;;;;;;1542435;77;698;-70
2021/12/08 01:50:57;;;;;;;;;;;24.00;48.50;;;;;;1542724;77;763;-70
2021/12/08 01:52:59;;;;;;;;;;;24.00;48.50;;;;;;1542562;77;1163;-71
2021/12/08 01:55:01;;;;;;;;;;;24.10;48.60;;;;;;1542557;76;751;-71
2021/12/08 01:57:03;;;;;;;;;;;24.00;48.50;;;;;;1542794;77;928;-71
2021/12/08 01:59:05;;;;;;;;;;;24.00;48.50;;;;;;1542637;76;801;-69
2021/12/08 02:01:08;;;;;;;;;;;24.10;48.60;;;;;;1542611;76;1924;-69
2021/12/08 02:03:10;;;;;;;;;;;24.10;48.60;;;;;;1542658;77;1129;-68
2021/12/08 02:05:12;;;;;;;;;;;24.10;48.60;;;;;;1542514;77;752;-68
2021/12/08 02:07:14;;;;;;;;;;;24.00;48.40;;;;;;1542742;76;817;-69
2021/12/08 02:09:16;;;;;;;;;;;24.10;48.50;;;;;;1537214;77;720;-68
2021/12/08 02:11:19;;;;;;;;;;;24.00;48.40;;;;;;1542602;77;885;-69
2021/12/08 02:18:36;;;;;;;;;;;24.00;48.40;;;;;;1509429;77;1665;-68
2021/12/08 02:20:38;;;;;;;;;;;24.00;48.40;;;;;;1513649;77;1926;-69
2021/12/08 02:22:40;;;;;;;;;;;24.00;48.40;;;;;;1510324;78;746;-65
2021/12/08 02:24:42;;;;;;;;;;;24.00;48.30;;;;;;1515296;78;723;-68
2021/12/08 02:26:44;;;;;;;;;;;24.00;48.30;;;;;;1507505;78;1239;-69
2021/12/08 02:31:12;;;;;;;;;;;24.10;48.40;;;;;;1524188;76;1739;-60
2021/12/08 02:47:17;;;;;;;;;;;24.00;48.60;;;;;;1503475;78;1795;-58
2021/12/08 02:49:16;;;;;;;;;;;24.00;48.60;;;;;;1496899;78;1640;-59
2021/12/08 02:51:20;;;;;;;;;;;24.00;48.60;;;;;;1516751;78;718;-59
2021/12/08 02:53:22;;;;;;;;;;;24.00;48.60;;;;;;1496012;78;825;-59
2021/12/08 02:55:24;;;;;;;;;;;24.00;48.60;;;;;;1506307;78;765;-59
2021/12/08 02:57:26;;;;;;;;;;;24.00;48.60;;;;;;1509524;78;1123;-59
2021/12/08 02:59:28;;;;;;;;;;;24.00;48.60;;;;;;1500388;78;715;-59
2021/12/08 03:01:30;;;;;;;;;;;24.00;48.60;;;;;;1505489;78;1916;-59
2021/12/08 03:03:32;;;;;;;;;;;24.00;48.50;;;;;;1508647;78;824;-58
2021/12/08 03:05:34;;;;;;;;;;;24.00;48.50;;;;;;1515797;78;768;-60
2021/12/08 03:07:37;;;;;;;;;;;24.00;48.50;;;;;;1508803;78;1120;-60
2021/12/08 03:09:39;;;;;;;;;;;24.00;48.50;;;;;;1501801;78;748;-59
2021/12/08 03:11:41;;;;;;;;;;;24.00;48.50;;;;;;1496054;77;764;-59
2021/12/08 03:13:44;;;;;;;;;;;23.90;48.50;;;;;;1520689;78;825;-58
2021/12/08 03:15:46;;;;;;;;;;;24.00;48.40;;;;;;1499676;78;800;-59
2021/12/08 03:17:48;;;;;;;;;;;24.00;48.50;;;;;;1508449;78;1070;-59
2021/12/08 03:19:50;;;;;;;;;;;23.90;48.50;;;;;;1502755;78;771;-60
2021/12/08 03:21:53;;;;;;;;;;;23.90;48.50;;;;;;1505025;78;1921;-59
2021/12/08 03:24:32;;;;;;;;;;;24.00;48.50;;;;;;1498882;78;742;-58
2021/12/08 03:26:06;;;;;;;;;;;24.00;48.50;;;;;;1492393;78;1440;-59
2021/12/08 03:28:19;;;;;;;;;;;23.90;48.40;;;;;;1503717;78;924;-59
2021/12/08 03:30:27;;;;;;;;;;;24.00;48.50;;;;;;1503869;78;969;-60
2021/12/08 03:32:29;;;;;;;;;;;23.90;48.40;;;;;;1508822;78;1618;-59
2021/12/08 03:34:26;;;;;;;;;;;24.00;48.50;;;;;;1514200;78;1608;-60
2021/12/08 03:36:27;;;;;;;;;;;24.00;48.50;;;;;;1511683;78;1192;-60
2021/12/08 03:38:29;;;;;;;;;;;24.00;48.40;;;;;;1510439;78;823;-60
2021/12/08 03:40:32;;;;;;;;;;;24.00;48.40;;;;;;1511088;78;712;-60
2021/12/08 03:42:37;;;;;;;;;;;24.00;48.40;;;;;;1499810;78;1914;-60
2021/12/08 03:44:38;;;;;;;;;;;24.10;48.50;;;;;;1495641;78;1486;-59
2021/12/08 03:46:42;;;;;;;;;;;24.10;48.40;;;;;;1517053;78;1183;-59
2021/12/08 03:48:51;;;;;;;;;;;24.20;48.40;;;;;;1509067;78;716;-59
2021/12/08 03:50:50;;;;;;;;;;;24.10;48.40;;;;;;1493803;78;1151;-59
2021/12/08 03:52:52;;;;;;;;;;;24.10;48.30;;;;;;1503414;78;768;-60
2021/12/08 03:54:54;;;;;;;;;;;24.10;48.20;;;;;;1506373;78;703;-59
2021/12/08 03:56:56;;;;;;;;;;;24.10;48.20;;;;;;1507024;76;1135;-58
2021/12/08 03:58:58;;;;;;;;;;;24.10;48.20;;;;;;1497065;76;709;-58
2021/12/08 04:01:00;;;;;;;;;;;24.10;48.30;;;;;;1505242;78;1929;-59
2021/12/08 04:03:06;;;;;;;;;;;24.00;48.30;;;;;;1505880;78;799;-59
2021/12/08 04:05:08;;;;;;;;;;;24.00;48.50;;;;;;1507408;78;789;-58
2021/12/08 04:07:13;;;;;;;;;;;24.00;48.40;;;;;;1503163;78;1132;-59
2021/12/08 04:09:19;;;;;;;;;;;24.20;48.40;;;;;;1501136;78;1514;-59
2021/12/08 04:11:17;;;;;;;;;;;24.00;48.30;;;;;;1506940;77;1663;-59
2021/12/08 04:13:21;;;;;;;;;;;24.00;48.40;;;;;;1518922;78;789;-58
2021/12/08 04:15:23;;;;;;;;;;;24.00;48.50;;;;;;1507080;78;829;-59
2021/12/08 04:17:27;;;;;;;;;;;24.00;48.60;;;;;;1506107;78;1141;-58
2021/12/08 04:19:29;;;;;;;;;;;23.90;48.80;;;;;;1501978;78;1826;-60
2021/12/08 04:21:31;;;;;;;;;;;23.80;48.90;;;;;;1515881;78;1940;-59
2021/12/08 04:23:36;;;;;;;;;;;23.90;49.10;;;;;;1494114;78;768;-59
2021/12/08 04:25:38;;;;;;;;;;;23.70;49.20;;;;;;1508598;78;1516;-59
2021/12/08 04:27:40;;;;;;;;;;;23.80;49.30;;;;;;1501417;78;1155;-57
2021/12/08 04:29:42;;;;;;;;;;;23.80;49.30;;;;;;1502474;78;785;-57
2021/12/08 04:31:44;;;;;;;;;;;23.70;49.40;;;;;;1518656;78;775;-56
2021/12/08 04:33:47;;;;;;;;;;;23.60;49.40;;;;;;1510701;78;732;-57
2021/12/08 04:35:51;;;;;;;;;;;23.60;49.40;;;;;;1512664;78;719;-59
2021/12/08 04:37:53;;;;;;;;;;;23.60;49.50;;;;;;1500357;78;2072;-58
2021/12/08 04:42:08;;;;;;;;;;;23.60;49.80;;;;;;1508876;78;1939;-58
2021/12/08 04:49:07;;;;;;;;;;;23.50;50.00;;;;;;1505847;78;881;-58
2021/12/08 05:00:29;;;;;;;;;;;23.50;50.10;;;;;;1495936;78;1652;-60
2021/12/08 05:02:32;;;;;;;;;;;23.50;50.30;;;;;;1494326;78;1922;-58
2021/12/08 05:04:44;;;;;;;;;;;23.50;50.30;;;;;;1499039;78;1588;-59
2021/12/08 05:06:45;;;;;;;;;;;23.50;50.50;;;;;;1508720;78;1600;-59
2021/12/08 05:08:42;;;;;;;;;;;23.50;50.50;;;;;;1510757;78;1606;-58
2021/12/08 05:10:44;;;;;;;;;;;23.50;50.50;;;;;;1496424;78;768;-58
2021/12/08 05:12:47;;;;;;;;;;;23.50;50.40;;;;;;1497566;78;790;-59
2021/12/08 05:14:51;;;;;;;;;;;23.50;50.40;;;;;;1499501;78;714;-60
2021/12/08 05:16:54;;;;;;;;;;;23.50;50.40;;;;;;1503757;78;1100;-58
2021/12/08 05:18:57;;;;;;;;;;;23.60;50.40;;;;;;1494041;78;736;-58
2021/12/08 05:21:06;;;;;;;;;;;23.60;50.40;;;;;;1497297;78;876;-60
2021/12/08 05:23:10;;;;;;;;;;;23.60;50.40;;;;;;1491648;78;1946;-58
2021/12/08 05:25:12;;;;;;;;;;;23.60;50.60;;;;;;1491872;78;778;-60
2021/12/08 05:27:16;;;;;;;;;;;23.50;50.70;;;;;;1502566;78;1167;-60
2021/12/08 05:29:19;;;;;;;;;;;23.80;50.20;;;;;;1493592;78;794;-59
2021/12/08 05:31:25;;;;;;;;;;;24.00;49.60;;;;;;1495689;78;793;-60
2021/12/08 05:33:27;;;;;;;;;;;24.10;49.20;;;;;;1497006;78;685;-61
2021/12/08 05:35:29;;;;;;;;;;;24.10;48.80;;;;;;1488851;78;758;-61
2021/12/08 05:37:31;;;;;;;;;;;24.20;48.70;;;;;;1498571;78;1136;-61
2021/12/08 05:39:33;;;;;;;;;;;24.20;48.40;;;;;;1493257;78;729;-60
2021/12/08 05:41:36;;;;;;;;;;;24.30;48.40;;;;;;1512939;78;1942;-60
2021/12/08 05:43:38;;;;;;;;;;;24.20;48.20;;;;;;1518089;78;794;-60
2021/12/08 05:45:40;;;;;;;;;;;24.20;48.20;;;;;;1507645;78;794;-59
2021/12/08 05:47:42;;;;;;;;;;;24.20;48.10;;;;;;1511671;78;1128;-61
2021/12/08 05:49:43;;;;;;;;;;;24.30;48.20;;;;;;1493774;77;707;-60
2021/12/08 05:51:46;;;;;;;;;;;24.20;48.10;;;;;;1492446;78;858;-60
2021/12/08 05:53:48;;;;;;;;;;;24.30;48.10;;;;;;1498107;78;690;-60
2021/12/08 05:55:50;;;;;;;;;;;24.40;48.00;;;;;;1504452;78;745;-61
2021/12/08 05:57:52;;;;;;;;;;;24.30;48.00;;;;;;1495548;78;1145;-60
2021/12/08 05:59:54;;;;;;;;;;;24.20;47.80;;;;;;1511592;78;789;-60
2021/12/08 06:01:58;;;;;;;;;;;24.30;47.90;;;;;;1503610;78;1942;-59
2021/12/08 06:04:00;;;;;;;;;;;24.30;47.90;;;;;;1498474;78;1851;-60
2021/12/08 06:06:02;;;;;;;;;;;24.20;47.70;;;;;;1517332;78;1122;-60
2021/12/08 06:08:04;;;;;;;;;;;24.30;47.80;;;;;;1504424;78;787;-60
2021/12/08 06:10:08;;;;;;;;;;;24.30;47.80;;;;;;1492851;78;736;-60
2021/12/08 06:12:10;;;;;;;;;;;24.30;47.80;;;;;;1503869;78;703;-60
2021/12/08 06:14:11;;;;;;;;;;;24.30;47.70;;;;;;1490893;78;769;-59
2021/12/08 06:16:13;;;;;;;;;;;24.30;47.60;;;;;;1505131;78;1144;-59
2021/12/08 06:18:19;;;;;;;;;;;24.40;47.70;;;;;;1504495;78;763;-62
2021/12/08 06:20:19;;;;;;;;;;;24.20;47.70;;;;;;1492557;78;1527;-60
2021/12/08 06:22:22;;;;;;;;;;;24.20;47.80;;;;;;1515662;78;1956;-62
2021/12/08 06:24:24;;;;;;;;;;;24.20;47.90;;;;;;1515147;78;835;-60
2021/12/08 06:26:26;;;;;;;;;;;24.20;47.80;;;;;;1505615;78;1125;-59
2021/12/08 06:28:28;;;;;;;;;;;24.20;48.00;;;;;;1508036;78;726;-60
2021/12/08 06:30:30;;;;;;;;;;;24.20;48.20;;;;;;1511152;78;670;-59
2021/12/08 06:32:32;;;;;;;;;;;24.20;48.10;;;;;;1496616;78;782;-59
2021/12/08 06:34:35;;;;;;;;;;;24.20;48.10;;;;;;1510506;78;743;-58
2021/12/08 06:36:39;;;;;;;;;;;24.30;48.20;;;;;;1503610;78;1155;-59
2021/12/08 06:38:40;;;;;;;;;;;24.20;48.10;;;;;;1497734;78;1840;-59
2021/12/08 06:40:53;;;;;;;;;;;24.10;48.10;;;;;;1505353;78;752;-58
2021/12/08 06:42:57;;;;;;;;;;;24.10;48.10;;;;;;1499730;76;1932;-56
2021/12/08 06:44:58;;;;;;;;;;;24.10;48.10;;;;;;1499713;78;789;-59
2021/12/08 06:47:00;;;;;;;;;;;24.10;48.10;;;;;;1512139;78;1135;-59
2021/12/08 06:49:03;;;;;;;;;;;24.10;48.10;;;;;;1511417;78;801;-58
2021/12/08 06:51:06;;;;;;;;;;;24.10;47.90;;;;;;1521796;78;725;-60
2021/12/08 06:53:09;;;;;;;;;;;24.10;47.90;;;;;;1515432;78;758;-58
2021/12/08 06:55:12;;;;;;;;;;;24.10;47.80;;;;;;1512501;78;829;-59
2021/12/08 06:57:19;;;;;;;;;;;24.10;47.80;;;;;;1499271;78;1095;-60
2021/12/08 06:59:21;;;;;;;;;;;24.00;47.60;;;;;;1499998;78;1797;-60
2021/12/08 07:01:37;;;;;;;;;;;24.00;47.60;;;;;;1517110;78;712;-60
2021/12/08 07:03:49;;;;;;;;;;;24.00;47.60;;;;;;1509978;78;1913;-59
2021/12/08 07:06:09;;;;;;;;;;;24.00;47.60;;;;;;1509753;78;1697;-59
2021/12/08 07:08:09;;;;;;;;;;;24.00;47.60;;;;;;1516389;78;1659;-59
2021/12/08 07:10:14;;;;;;;;;;;23.90;47.50;;;;;;1510334;78;768;-60
2021/12/08 07:12:17;;;;;;;;;;;24.00;47.60;;;;;;1492958;78;847;-57
2021/12/08 07:14:20;;;;;;;;;;;24.00;47.50;;;;;;1498341;78;799;-59
2021/12/08 07:16:23;;;;;;;;;;;24.00;47.50;;;;;;1498505;78;1184;-58
2021/12/08 07:18:27;;;;;;;;;;;24.00;47.50;;;;;;1505047;78;1074;-59
2021/12/08 07:20:46;;;;;;;;;;;24.00;47.40;;;;;;1518032;78;743;-59
2021/12/08 07:22:50;;;;;;;;;;;24.00;47.40;;;;;;1518052;78;1905;-60
2021/12/08 07:24:52;;;;;;;;;;;23.90;47.30;;;;;;1499729;77;735;-61
2021/12/08 07:26:55;;;;;;;;;;;23.90;47.30;;;;;;1499846;78;1141;-59
2021/12/08 07:28:57;;;;;;;;;;;23.90;47.40;;;;;;1505252;78;747;-59
2021/12/08 07:31:01;;;;;;;;;;;24.00;47.40;;;;;;1497855;78;730;-58
2021/12/08 07:33:03;;;;;;;;;;;23.90;47.30;;;;;;1499904;78;819;-59
2021/12/08 07:35:06;;;;;;;;;;;23.90;47.30;;;;;;1497119;78;750;-59
2021/12/08 07:37:11;;;;;;;;;;;23.90;47.30;;;;;;1492974;78;1134;-58
2021/12/08 07:39:16;;;;;;;;;;;23.90;47.30;;;;;;1494095;77;750;-60
2021/12/08 07:41:23;;;;;;;;;;;23.90;47.30;;;;;;1495409;78;760;-57
2021/12/08 07:43:25;;;;;;;;;;;23.90;47.30;;;;;;1510683;78;1915;-59
2021/12/08 07:45:31;;;;;;;;;;;23.90;47.20;;;;;;1492995;78;701;-59
2021/12/08 07:47:32;;;;;;;;;;;23.90;47.20;;;;;;1500153;78;1881;-57
2021/12/08 07:49:41;;;;;;;;;;;23.90;47.20;;;;;;1505765;78;707;-59
2021/12/08 07:51:45;;;;;;;;;;;23.90;47.10;;;;;;1498355;78;1759;-59
2021/12/08 07:53:47;;;;;;;;;;;23.90;47.10;;;;;;1492872;78;711;-59
2021/12/08 07:55:50;;;;;;;;;;;23.90;47.10;;;;;;1503631;78;784;-59
2021/12/08 07:57:51;;;;;;;;;;;23.90;47.10;;;;;;1499009;78;1058;-60
2021/12/08 07:59:54;;;;;;;;;;;23.80;47.00;;;;;;1488122;78;768;-59
2021/12/08 08:01:57;;;;;;;;;;;23.80;47.10;;;;;;1495972;78;642;-59
2021/12/08 08:03:59;;;;;;;;;;;23.90;47.10;;;;;;1508484;78;1932;-59
2021/12/08 08:06:02;;;;;;;;;;;23.90;47.10;;;;;;1493975;78;1148;-58
2021/12/08 08:08:05;;;;;;;;;;;23.90;47.10;;;;;;1493987;78;888;-57
2021/12/08 08:10:13;;;;;;;;;;;23.90;47.10;;;;;;1495621;78;700;-59
2021/12/08 08:12:13;;;;;;;;;;;23.90;47.10;;;;;;1494024;78;1711;-61
2021/12/08 08:14:19;;;;;;;;;;;23.90;47.10;;;;;;1496757;78;802;-59
2021/12/08 08:16:19;;;;;;;;;;;23.80;47.00;;;;;;1493324;78;1702;-60
2021/12/08 08:18:25;;;;;;;;;;;23.80;47.00;;;;;;1492445;78;747;-59
2021/12/08 08:20:26;;;;;;;;;;;23.80;47.10;;;;;;1498933;78;1670;-58
2021/12/08 08:22:29;;;;;;;;;;;23.80;47.10;;;;;;1502445;78;1930;-61
2021/12/08 08:24:31;;;;;;;;;;;23.80;47.00;;;;;;1508629;78;831;-58
2021/12/08 08:26:33;;;;;;;;;;;23.80;47.00;;;;;;1519133;78;1175;-58
2021/12/08 08:28:34;;;;;;;;;;;23.80;47.00;;;;;;1512509;78;735;-60
2021/12/08 08:30:38;;;;;;;;;;;23.80;47.00;;;;;;1535330;74;221762;-64
2021/12/08 08:32:40;;;;;;;;;;;23.80;47.00;;;;;;1558461;75;1187;-66
2021/12/08 08:34:44;;;;;;;;;;;23.80;46.90;;;;;;1553857;75;788;-67
2021/12/08 08:36:47;;;;;;;;;;;23.90;47.00;;;;;;1550364;75;1702;-67
2021/12/08 08:39:00;;;;;;;;;;;23.80;47.00;;;;;;1554014;75;751;-68
2021/12/08 08:41:03;;;;;;;;;;;23.80;46.90;;;;;;1548088;76;1119;-69
2021/12/08 08:43:05;;;;;;;;;;;23.80;46.80;;;;;;1547058;76;1996;-68
2021/12/08 08:45:09;;;;;;;;;;;23.80;46.90;;;;;;1551429;76;788;-67
2021/12/08 08:47:12;;;;;;;;;;;23.80;46.90;;;;;;1550548;76;1950;-69
2021/12/08 08:49:15;;;;;;;;;;;23.80;46.90;;;;;;1558207;76;1128;-65
2021/12/08 08:51:18;;;;;;;;;;;23.80;46.90;;;;;;1550788;76;749;-68
2021/12/08 08:53:21;;;;;;;;;;;23.80;46.90;;;;;;1546319;76;2254;-68
2021/12/08 08:55:25;;;;;;;;;;;23.80;46.80;;;;;;1560064;76;783;-67
2021/12/08 08:57:33;;;;;;;;;;;23.80;46.80;;;;;;1556968;76;722;-68
2021/12/08 08:59:40;;;;;;;;;;;23.80;46.80;;;;;;1560099;76;1111;-68
2021/12/08 09:01:40;;;;;;;;;;;23.80;46.80;;;;;;1538231;76;1662;-67
2021/12/08 09:03:44;;;;;;;;;;;23.90;46.90;;;;;;1543501;76;1931;-66
2021/12/08 09:05:52;;;;;;;;;;;23.80;46.80;;;;;;1540382;76;826;-66
2021/12/08 09:07:54;;;;;;;;;;;23.90;46.90;;;;;;1547640;76;1095;-66
2021/12/08 09:09:56;;;;;;;;;;;23.80;46.80;;;;;;1550625;76;1139;-67
2021/12/08 09:12:09;;;;;;;;;;;23.90;46.80;;;;;;1546054;76;828;-67
2021/12/08 09:14:15;;;;;;;;;;;23.80;46.80;;;;;;1509479;76;1121;-67
2021/12/08 09:16:18;;;;;;;;;;;23.90;46.80;;;;;;1551836;76;1670;-67
2021/12/08 09:18:24;;;;;;;;;;;23.90;46.90;;;;;;1544398;76;797;-69
2021/12/08 09:20:44;;;;;;;;;;;23.90;46.80;;;;;;1546458;76;1808;-67
2021/12/08 09:22:56;;;;;;;;;;;23.90;46.80;;;;;;1552588;76;2082;-69
2021/12/08 09:24:54;;;;;;;;;;;23.80;46.80;;;;;;1540203;76;1720;-67
2021/12/08 09:26:57;;;;;;;;;;;23.80;46.80;;;;;;1545707;76;1015;-67
2021/12/08 09:29:01;;;;;;;;;;;23.90;46.90;;;;;;1545748;76;686;-66
2021/12/08 09:31:08;;;;;;;;;;;23.90;46.90;;;;;;1557317;76;1117;-66
2021/12/08 09:33:14;;;;;;;;;;;23.80;46.80;;;;;;1550168;76;767;-67
2021/12/08 09:35:18;;;;;;;;;;;23.80;46.80;;;;;;1552803;76;1816;-67
2021/12/08 09:37:20;;;;;;;;;;;23.80;46.70;;;;;;1547159;76;1773;-67
2021/12/08 09:39:26;;;;;;;;;;;23.90;46.80;;;;;;1544087;76;1146;-67
2021/12/08 09:41:29;;;;;;;;;;;23.90;46.80;;;;;;1554247;76;723;-67
2021/12/08 09:43:33;;;;;;;;;;;23.70;46.80;;;;;;1546182;76;1943;-68
2021/12/08 09:45:37;;;;;;;;;;;23.80;46.80;;;;;;1558326;76;723;-67
2021/12/08 09:47:39;;;;;;;;;;;23.80;46.80;;;;;;1549445;76;1857;-66
2021/12/08 09:49:40;;;;;;;;;;;23.80;46.80;;;;;;1541252;76;1138;-67
2021/12/08 09:51:42;;;;;;;;;;;23.80;46.80;;;;;;1542807;76;778;-68
2021/12/08 09:53:44;;;;;;;;;;;23.80;46.80;;;;;;1554715;76;757;-67
2021/12/08 09:55:46;;;;;;;;;;;23.80;46.80;;;;;;1548605;74;707;-70
2021/12/08 09:57:48;;;;;;;;;;;23.80;47.00;;;;;;1550763;76;671;-68
2021/12/08 09:59:50;;;;;;;;;;;23.80;47.40;;;;;;1553054;76;1117;-69
2021/12/08 10:01:55;;;;;;;;;;;23.80;47.60;;;;;;1542179;76;776;-69
2021/12/08 10:03:56;;;;;;;;;;;23.80;46.50;;;;;;1560396;76;1930;-69
2021/12/08 10:05:58;;;;;;;;;;;23.80;45.70;;;;;;1554763;76;691;-69
2021/12/08 10:08:00;;;;;;;;;;;23.70;45.20;;;;;;1559192;76;826;-67
2021/12/08 10:10:02;;;;;;;;;;;23.80;45.70;;;;;;1543378;76;1162;-68
2021/12/08 10:12:04;;;;;;;;;;;23.80;46.30;;;;;;1554984;76;695;-68
2021/12/08 10:14:06;;;;;;;;;;;23.70;46.60;;;;;;1547290;76;749;-68
2021/12/08 10:16:08;;;;;;;;;;;23.80;46.80;;;;;;1556198;76;678;-67
2021/12/08 10:18:10;;;;;;;;;;;23.80;46.90;;;;;;1551658;76;757;-67
2021/12/08 10:20:16;;;;;;;;;;;23.80;47.10;;;;;;1557336;76;1130;-67
2021/12/08 10:22:19;;;;;;;;;;;23.90;47.20;;;;;;1551341;76;806;-66
2021/12/08 10:24:22;;;;;;;;;;;23.90;47.30;;;;;;1555012;76;1934;-68
2021/12/08 10:26:25;;;;;;;;;;;23.80;47.30;;;;;;1558225;76;800;-67
2021/12/08 10:28:27;;;;;;;;;;;23.80;47.40;;;;;;1550668;76;796;-68
2021/12/08 10:30:29;;;;;;;;;;;23.90;47.60;;;;;;1546712;76;1148;-67
2021/12/08 10:32:37;;;;;;;;;;;23.80;47.50;;;;;;1546759;76;958;-67
2021/12/08 10:34:52;;;;;;;;;;;23.90;47.60;;;;;;1555180;76;743;-67
2021/12/08 10:36:50;;;;;;;;;;;23.90;47.60;;;;;;1550477;76;1723;-68
2021/12/08 10:38:52;;;;;;;;;;;23.80;47.80;;;;;;1539823;76;785;-67
2021/12/08 10:40:58;;;;;;;;;;;23.90;47.80;;;;;;1560276;76;1066;-67
2021/12/08 10:43:01;;;;;;;;;;;23.90;47.80;;;;;;1551929;76;737;-70
2021/12/08 10:45:13;;;;;;;;;;;23.90;47.80;;;;;;1546942;76;1955;-68
2021/12/08 10:47:15;;;;;;;;;;;23.90;47.80;;;;;;1550866;76;1609;-66
2021/12/08 10:49:28;;;;;;;;;;;23.80;47.80;;;;;;1543669;76;1948;-69
2021/12/08 10:56:04;;;;;;;;;;;23.90;47.80;;;;;;1538419;76;1620;-67
2021/12/08 10:58:06;;;;;;;;;;;23.80;47.70;;;;;;1556572;76;784;-68
2021/12/08 11:00:13;;;;;;;;;;;23.90;47.80;;;;;;1547072;76;1130;-69
2021/12/08 11:02:33;;;;;;;;;;;23.90;47.80;;;;;;1553947;76;774;-66
2021/12/08 11:04:36;;;;;;;;;;;23.90;47.80;;;;;;1549708;76;1926;-67
2021/12/08 11:06:38;;;;;;;;;;;23.90;47.80;;;;;;1555036;76;738;-68
2021/12/08 11:08:41;;;;;;;;;;;23.90;47.80;;;;;;1546274;76;847;-66
2021/12/08 11:10:44;;;;;;;;;;;23.90;47.80;;;;;;1543973;76;1140;-67
2021/12/08 11:12:46;;;;;;;;;;;23.90;47.80;;;;;;1543884;76;920;-67
2021/12/08 11:14:49;;;;;;;;;;;23.90;47.80;;;;;;1548421;76;770;-68
2021/12/08 11:16:50;;;;;;;;;;;23.90;47.80;;;;;;1548444;76;803;-70
2021/12/08 11:19:03;;;;;;;;;;;23.90;47.80;;;;;;1546950;76;798;-67
2021/12/08 11:21:07;;;;;;;;;;;23.90;47.80;;;;;;1557547;76;1097;-67
2021/12/08 11:23:14;;;;;;;;;;;23.90;47.80;;;;;;1547358;76;852;-66
2021/12/08 11:25:23;;;;;;;;;;;23.90;47.80;;;;;;1538261;76;1947;-63
2021/12/08 11:27:29;;;;;;;;;;;23.90;47.90;;;;;;1547373;76;1749;-67
2021/12/08 11:29:33;;;;;;;;;;;23.90;47.80;;;;;;1547412;76;1151;-65
2021/12/08 11:31:53;;;;;;;;;;;23.90;47.80;;;;;;1545087;74;786;-66
2021/12/08 11:34:05;;;;;;;;;;;23.90;47.90;;;;;;1545184;74;757;-69
2021/12/08 11:36:09;;;;;;;;;;;23.90;47.80;;;;;;1546366;74;1551;-65
2021/12/08 11:38:10;;;;;;;;;;;23.90;47.70;;;;;;1541468;74;763;-73
2021/12/08 11:40:16;;;;;;;;;;;23.90;47.70;;;;;;1554077;76;1135;-72
2021/12/08 11:42:18;;;;;;;;;;;23.90;47.60;;;;;;1557104;74;747;-71
2021/12/08 11:44:21;;;;;;;;;;;23.90;47.60;;;;;;1553964;74;1951;-72
2021/12/08 11:46:23;;;;;;;;;;;24.00;47.50;;;;;;1546979;74;744;-73
2021/12/08 11:48:25;;;;;;;;;;;24.00;47.40;;;;;;1547960;74;727;-75
2021/12/08 11:50:27;;;;;;;;;;;24.00;47.40;;;;;;1553019;74;1176;-73
2021/12/08 11:52:32;;;;;;;;;;;24.00;47.30;;;;;;1549430;74;788;-75
2021/12/08 11:54:35;;;;;;;;;;;24.00;47.30;;;;;;1546911;76;883;-72
2021/12/08 11:56:39;;;;;;;;;;;24.10;47.40;;;;;;1548242;74;691;-74
2021/12/08 11:58:42;;;;;;;;;;;24.00;47.20;;;;;;1550415;74;779;-69
2021/12/08 12:00:48;;;;;;;;;;;24.00;47.20;;;;;;1544937;74;1368;-73
2021/12/08 12:02:55;;;;;;;;;;;24.00;47.20;;;;;;1542499;74;1618;-72
2021/12/08 12:04:55;;;;;;;;;;;24.00;47.20;;;;;;1538820;74;1915;-74
2021/12/08 12:06:57;;;;;;;;;;;24.00;47.20;;;;;;1523079;76;744;-73
2021/12/08 12:08:59;;;;;;;;;;;24.00;47.20;;;;;;1550841;74;845;-72
2021/12/08 12:11:02;;;;;;;;;;;24.00;47.20;;;;;;1545560;74;1112;-72
2021/12/08 12:13:08;;;;;;;;;;;24.00;47.20;;;;;;1558344;74;689;-74
2021/12/08 12:15:09;;;;;;;;;;;24.00;47.20;;;;;;1551025;74;1723;-72
2021/12/08 12:17:11;;;;;;;;;;;24.00;47.10;;;;;;1553625;74;789;-70
2021/12/08 12:19:16;;;;;;;;;;;24.00;47.20;;;;;;1542340;74;1142;-68
2021/12/08 12:21:24;;;;;;;;;;;24.00;47.30;;;;;;1546207;74;1779;-68
2021/12/08 12:23:45;;;;;;;;;;;24.00;47.20;;;;;;1552425;74;1841;-71
2021/12/08 12:25:54;;;;;;;;;;;24.10;47.30;;;;;;1554946;74;783;-68
2021/12/08 12:28:16;;;;;;;;;;;24.10;47.30;;;;;;1549898;74;795;-71
2021/12/08 12:30:22;;;;;;;;;;;24.10;47.30;;;;;;1561040;74;1977;-71
2021/12/08 12:32:26;;;;;;;;;;;24.20;47.20;;;;;;1540473;74;1273;-71
2021/12/08 12:34:31;;;;;;;;;;;24.20;47.20;;;;;;1552866;74;683;-71
2021/12/08 12:36:34;;;;;;;;;;;24.20;47.10;;;;;;1549349;74;575;-71
2021/12/08 12:38:37;;;;;;;;;;;24.30;47.20;;;;;;1550380;76;683;-73
2021/12/08 12:40:40;;;;;;;;;;;24.30;47.20;;;;;;1553746;76;1164;-72
2021/12/08 12:42:43;;;;;;;;;;;24.30;47.10;;;;;;1550573;76;781;-75
2021/12/08 12:44:47;;;;;;;;;;;24.30;47.10;;;;;;1554674;76;1915;-70
2021/12/08 12:47:08;;;;;;;;;;;24.30;47.10;;;;;;1551218;76;1095;-70
2021/12/08 12:49:24;;;;;;;;;;;24.20;47.10;;;;;;1553955;76;1852;-70
2021/12/08 12:51:26;;;;;;;;;;;24.20;47.10;;;;;;1541933;76;791;-70
2021/12/08 12:53:32;;;;;;;;;;;24.20;47.20;;;;;;1556632;76;775;-71
2021/12/08 12:55:38;;;;;;;;;;;24.20;47.30;;;;;;1559917;76;895;-71
2021/12/08 12:57:58;;;;;;;;;;;24.20;47.20;;;;;;1547818;76;666;-72
2021/12/08 13:00:00;;;;;;;;;;;24.30;47.30;;;;;;1548879;76;1145;-70
2021/12/08 13:02:06;;;;;;;;;;;24.30;47.30;;;;;;1548830;76;781;-77
2021/12/08 13:04:14;;;;;;;;;;;24.30;47.20;;;;;;1544120;76;1935;-70